Time;durP1;ratioP1;P1;durP2;ratioP2;P2;SDS_P1;SDS_P2;PMS_P1;PMS_P2;Temp;Humidity;BMP_temperature;BMP_pressure;BME280_temperature;BME280_humidity;BME280_pressure;Samples;Min_cycle;Max_cycle;Signal;HPM_P1;HPM_P2
2021/04/28 00:01:30;;;;;;;6.77;4.30;;;9.20;48.00;;;;;;5081678;28;20899;-53
2021/04/28 00:03:57;;;;;;;8.00;5.87;;;9.20;47.90;;;;;;5082219;28;20485;-54
2021/04/28 00:06:23;;;;;;;7.50;4.90;;;9.10;48.00;;;;;;5085632;28;20442;-49
2021/04/28 00:08:50;;;;;;;6.93;4.40;;;9.10;48.10;;;;;;5085025;28;20954;-53
2021/04/28 00:11:16;;;;;;;6.50;4.37;;;9.00;48.10;;;;;;5085716;28;20915;-53
2021/04/28 00:13:42;;;;;;;11.57;5.30;;;9.00;48.50;;;;;;5085791;28;20449;-55
2021/04/28 00:16:08;;;;;;;5.17;4.13;;;8.90;48.70;;;;;;5085483;28;20442;-55
2021/04/28 00:18:35;;;;;;;5.90;4.10;;;8.90;48.50;;;;;;5085668;28;20446;-55
2021/04/28 00:21:01;;;;;;;10.70;4.70;;;8.80;49.10;;;;;;5085818;28;20518;-50
2021/04/28 00:23:28;;;;;;;5.70;4.23;;;8.80;48.50;;;;;;5085204;28;20485;-54
2021/04/28 00:25:55;;;;;;;7.00;4.53;;;8.70;48.70;;;;;;5086050;28;20462;-54
2021/04/28 00:28:21;;;;;;;10.10;4.73;;;8.70;48.70;;;;;;5086495;28;20453;-56
2021/04/28 00:30:50;;;;;;;7.00;5.30;;;8.60;48.90;;;;;;5086176;28;20469;-53
2021/04/28 00:33:18;;;;;;;9.40;4.23;;;8.60;48.70;;;;;;5086254;28;20450;-55
2021/04/28 00:35:44;;;;;;;7.23;4.47;;;8.60;49.10;;;;;;5086907;28;20450;-53
2021/04/28 00:38:10;;;;;;;5.90;4.73;;;8.60;49.10;;;;;;5086227;28;20597;-53
2021/04/28 00:40:40;;;;;;;7.70;5.80;;;8.50;49.20;;;;;;5086497;28;20454;-54
2021/04/28 00:43:07;;;;;;;6.10;4.83;;;8.40;49.90;;;;;;5086577;28;20477;-52
2021/04/28 00:45:34;;;;;;;5.70;4.60;;;8.40;49.50;;;;;;5086435;28;20434;-55
2021/04/28 00:48:02;;;;;;;7.03;4.80;;;8.30;50.20;;;;;;5085955;28;20454;-51
2021/04/28 00:50:30;;;;;;;5.50;4.30;;;8.30;49.50;;;;;;5085269;28;20461;-55
2021/04/28 00:52:57;;;;;;;7.50;5.10;;;8.30;49.80;;;;;;5086532;28;20449;-52
2021/04/28 00:55:24;;;;;;;7.07;4.73;;;8.30;49.90;;;;;;5086231;28;20773;-53
2021/04/28 00:57:50;;;;;;;7.60;4.90;;;8.20;50.00;;;;;;5086365;28;20454;-55
2021/04/28 01:00:19;;;;;;;8.03;5.10;;;8.20;50.10;;;;;;5086270;28;20465;-53
2021/04/28 01:02:45;;;;;;;7.07;4.70;;;8.10;50.10;;;;;;5084589;28;20438;-52
2021/04/28 01:05:16;;;;;;;6.80;5.63;;;8.10;50.10;;;;;;5083857;28;20442;-53
2021/04/28 01:07:44;;;;;;;7.23;5.10;;;8.10;50.20;;;;;;5085096;28;20453;-49
2021/04/28 01:10:16;;;;;;;6.50;4.57;;;8.00;50.40;;;;;;5086638;28;20438;-55
2021/04/28 01:12:42;;;;;;;6.27;4.60;;;8.00;50.50;;;;;;5086454;28;20453;-55
2021/04/28 01:15:11;;;;;;;13.20;6.03;;;8.00;50.60;;;;;;5086095;28;20469;-56
2021/04/28 01:17:39;;;;;;;9.27;4.77;;;7.90;50.60;;;;;;5086704;28;20438;-56
2021/04/28 01:20:07;;;;;;;6.57;5.10;;;7.90;50.80;;;;;;5086633;28;20447;-56
2021/04/28 01:22:37;;;;;;;8.77;5.30;;;7.90;50.80;;;;;;5086032;28;20456;-54
2021/04/28 01:25:05;;;;;;;9.97;6.50;;;7.80;50.90;;;;;;5085662;28;20478;-53
2021/04/28 01:27:32;;;;;;;7.40;5.27;;;7.80;50.90;;;;;;5086028;28;20457;-54
2021/04/28 01:30:00;;;;;;;10.07;5.90;;;7.80;51.00;;;;;;5085608;28;20535;-54
2021/04/28 01:32:28;;;;;;;17.70;5.33;;;7.80;51.60;;;;;;5086286;28;20454;-49
2021/04/28 01:34:55;;;;;;;10.80;5.50;;;7.70;51.20;;;;;;5086280;28;20438;-53
2021/04/28 01:37:25;;;;;;;9.00;6.60;;;7.70;51.30;;;;;;5086239;28;20454;-51
2021/04/28 01:39:53;;;;;;;10.83;5.73;;;7.70;51.30;;;;;;5087069;28;20450;-48
2021/04/28 01:42:20;;;;;;;8.40;5.30;;;7.70;51.30;;;;;;5085943;28;20477;-54
2021/04/28 01:44:48;;;;;;;9.03;5.90;;;7.70;51.30;;;;;;5085967;28;20470;-53
2021/04/28 01:47:15;;;;;;;6.60;5.53;;;7.60;51.20;;;;;;5086496;28;20438;-53
2021/04/28 01:49:42;;;;;;;8.80;5.57;;;7.60;51.30;;;;;;5086626;28;20446;-56
2021/04/28 01:52:09;;;;;;;8.60;5.00;;;7.60;51.30;;;;;;5086302;28;20442;-53
2021/04/28 01:54:38;;;;;;;6.50;5.20;;;7.60;51.40;;;;;;5085945;28;20434;-53
2021/04/28 01:57:07;;;;;;;8.83;6.00;;;7.60;51.50;;;;;;5086312;28;20791;-53
2021/04/28 01:59:34;;;;;;;7.73;4.83;;;7.60;51.50;;;;;;5086582;28;20476;-53
2021/04/28 02:02:03;;;;;;;7.80;6.10;;;7.60;51.40;;;;;;5087161;28;20461;-48
2021/04/28 02:04:30;;;;;;;10.10;5.10;;;7.60;51.50;;;;;;5087180;28;20482;-51
2021/04/28 02:06:56;;;;;;;7.80;4.43;;;7.60;51.50;;;;;;5087176;28;20442;-49
2021/04/28 02:09:22;;;;;;;6.13;4.33;;;7.50;51.50;;;;;;5087211;28;20481;-50
2021/04/28 02:11:49;;;;;;;8.40;5.87;;;7.50;51.70;;;;;;5087039;28;20438;-51
2021/04/28 02:14:20;;;;;;;9.30;5.30;;;7.50;51.60;;;;;;5087431;28;20439;-55
2021/04/28 02:16:46;;;;;;;9.00;5.80;;;7.50;51.80;;;;;;5086170;28;20426;-56
2021/04/28 02:19:14;;;;;;;8.07;5.40;;;7.40;51.80;;;;;;5085765;28;20451;-53
2021/04/28 02:21:42;;;;;;;8.70;5.23;;;7.40;52.00;;;;;;5085940;28;20453;-54
2021/04/28 02:24:12;;;;;;;6.90;5.57;;;7.40;52.00;;;;;;5086609;28;20497;-54
2021/04/28 02:26:39;;;;;;;14.93;6.10;;;7.40;52.20;;;;;;5087883;28;20427;-52
2021/04/28 02:29:05;;;;;;;8.77;5.23;;;7.40;52.10;;;;;;5087911;28;20466;-53
2021/04/28 02:31:32;;;;;;;7.77;6.03;;;7.40;52.30;;;;;;5087540;28;20466;-55
2021/04/28 02:34:00;;;;;;;8.40;6.07;;;7.30;52.30;;;;;;5086912;28;20434;-52
2021/04/28 02:36:26;;;;;;;10.80;6.90;;;7.30;52.40;;;;;;5087615;28;20787;-52
2021/04/28 02:38:58;;;;;;;7.80;5.80;;;7.30;52.40;;;;;;5086563;28;20520;-55
2021/04/28 02:41:24;;;;;;;9.37;6.30;;;7.30;52.50;;;;;;5087000;28;20461;-51
2021/04/28 02:43:52;;;;;;;7.97;6.13;;;7.30;52.50;;;;;;5086359;28;20831;-50
2021/04/28 02:46:20;;;;;;;7.90;5.60;;;7.40;52.40;;;;;;5087061;28;20721;-51
2021/04/28 02:48:49;;;;;;;9.30;6.30;;;7.30;52.80;;;;;;5086875;28;20450;-52
2021/04/28 02:51:16;;;;;;;9.83;5.50;;;7.30;52.70;;;;;;5087511;28;20453;-55
2021/04/28 02:53:45;;;;;;;8.93;6.57;;;7.20;52.70;;;;;;5086905;28;20439;-53
2021/04/28 02:56:11;;;;;;;9.37;5.97;;;7.20;52.80;;;;;;5087366;28;20435;-51
2021/04/28 02:58:39;;;;;;;11.20;6.07;;;7.20;52.80;;;;;;5085705;28;20454;-53
2021/04/28 03:01:06;;;;;;;8.87;5.43;;;7.20;52.90;;;;;;5086972;28;20485;-51
2021/04/28 03:03:33;;;;;;;10.57;6.30;;;7.20;53.00;;;;;;5087141;28;20466;-49
2021/04/28 03:06:01;;;;;;;7.93;5.73;;;7.10;53.20;;;;;;5087471;28;20944;-51
2021/04/28 03:08:30;;;;;;;14.80;6.37;;;7.10;53.20;;;;;;5087717;28;20442;-49
2021/04/28 03:10:58;;;;;;;9.50;6.17;;;7.10;53.20;;;;;;5087270;28;20447;-51
2021/04/28 03:13:25;;;;;;;8.23;6.37;;;7.10;53.40;;;;;;5086814;28;20965;-51
2021/04/28 03:15:51;;;;;;;8.97;6.30;;;7.10;53.60;;;;;;5086688;28;20446;-53
2021/04/28 03:18:18;;;;;;;8.70;6.70;;;7.10;53.60;;;;;;5086905;28;20446;-48
2021/04/28 03:20:47;;;;;;;8.80;6.30;;;7.00;53.60;;;;;;5086482;28;20446;-55
2021/04/28 03:23:15;;;;;;;9.00;5.67;;;7.00;53.60;;;;;;5086826;28;20470;-54
2021/04/28 03:25:42;;;;;;;14.03;6.13;;;7.00;53.70;;;;;;5086563;28;20442;-50
2021/04/28 03:28:11;;;;;;;11.57;6.77;;;7.00;53.70;;;;;;5086994;28;20449;-56
2021/04/28 03:30:38;;;;;;;15.90;7.43;;;7.00;53.90;;;;;;5086689;28;20470;-52
2021/04/28 03:33:04;;;;;;;10.80;6.13;;;7.00;53.90;;;;;;5087308;28;20454;-49
2021/04/28 03:35:31;;;;;;;10.97;6.77;;;7.00;53.90;;;;;;5086448;28;20931;-53
2021/04/28 03:37:57;;;;;;;7.40;5.13;;;6.90;54.00;;;;;;5087700;28;20462;-54
2021/04/28 03:40:24;;;;;;;13.60;6.50;;;6.90;54.50;;;;;;5089903;28;20457;-54
2021/04/28 03:42:50;;;;;;;9.00;6.93;;;6.90;54.50;;;;;;5091288;28;20453;-53
2021/04/28 03:45:16;;;;;;;8.20;6.67;;;6.90;54.60;;;;;;5090070;28;20477;-54
2021/04/28 03:47:43;;;;;;;8.37;6.23;;;6.90;54.70;;;;;;5090674;28;20443;-55
2021/04/28 03:50:10;;;;;;;11.73;6.70;;;6.80;54.80;;;;;;5091401;28;20449;-51
2021/04/28 03:52:37;;;;;;;11.90;7.87;;;6.80;55.10;;;;;;5093193;28;20439;-49
2021/04/28 03:55:04;;;;;;;10.40;6.47;;;6.80;55.00;;;;;;5092135;28;20508;-56
2021/04/28 03:57:31;;;;;;;8.47;6.10;;;6.70;55.20;;;;;;5092152;28;20471;-53
2021/04/28 03:59:57;;;;;;;10.50;6.00;;;6.70;55.50;;;;;;5092001;28;20465;-50
2021/04/28 04:02:23;;;;;;;12.10;7.50;;;6.60;55.50;;;;;;5091281;28;20469;-53
2021/04/28 04:04:49;;;;;;;15.93;7.20;;;6.60;55.70;;;;;;5092023;28;20474;-55
2021/04/28 04:07:16;;;;;;;15.40;7.43;;;6.60;56.40;;;;;;5092136;28;20449;-54
2021/04/28 04:09:42;;;;;;;12.07;6.03;;;6.60;56.00;;;;;;5092861;28;20450;-52
2021/04/28 04:12:09;;;;;;;11.07;7.10;;;6.50;56.00;;;;;;5092271;28;20454;-51
2021/04/28 04:14:37;;;;;;;14.00;7.43;;;6.50;56.20;;;;;;5094737;28;20453;-54
2021/04/28 04:17:03;;;;;;;9.20;6.30;;;6.50;56.20;;;;;;5094575;28;20442;-52
2021/04/28 04:19:29;;;;;;;7.30;5.97;;;6.50;56.40;;;;;;5092548;28;20465;-54
2021/04/28 04:21:55;;;;;;;16.63;7.40;;;6.50;56.50;;;;;;5092190;28;20447;-49
2021/04/28 04:24:23;;;;;;;9.10;6.73;;;6.50;56.60;;;;;;5092120;28;20489;-49
2021/04/28 04:26:49;;;;;;;11.53;6.60;;;6.50;56.70;;;;;;5092001;28;20764;-53
2021/04/28 04:29:15;;;;;;;7.93;7.00;;;6.50;56.90;;;;;;5091974;28;20443;-52
2021/04/28 04:31:43;;;;;;;16.73;7.00;;;6.50;56.90;;;;;;5091029;28;20427;-54
2021/04/28 04:34:09;;;;;;;13.43;7.37;;;6.50;57.00;;;;;;5073616;28;20435;-48
2021/04/28 04:36:35;;;;;;;12.53;7.20;;;6.50;57.30;;;;;;5077305;28;20447;-53
2021/04/28 04:39:02;;;;;;;9.20;6.30;;;6.40;57.20;;;;;;5070789;28;20426;-55
2021/04/28 04:41:28;;;;;;;10.70;7.00;;;6.40;57.50;;;;;;5076380;28;20447;-52
2021/04/28 04:43:54;;;;;;;10.33;7.20;;;6.40;57.70;;;;;;5073559;28;20489;-54
2021/04/28 04:46:20;;;;;;;10.30;6.90;;;6.50;57.70;;;;;;5073776;28;20974;-48
2021/04/28 04:48:47;;;;;;;10.03;6.73;;;6.50;58.00;;;;;;5071721;28;20449;-51
2021/04/28 04:51:13;;;;;;;10.30;7.40;;;6.50;57.80;;;;;;5073513;28;20438;-49
2021/04/28 04:53:40;;;;;;;11.13;7.27;;;6.50;57.90;;;;;;5072868;28;20451;-50
2021/04/28 04:56:06;;;;;;;11.03;7.30;;;6.50;57.90;;;;;;5072908;28;20439;-50
2021/04/28 04:58:32;;;;;;;9.77;7.40;;;6.50;58.10;;;;;;5067336;28;20749;-51
2021/04/28 05:00:59;;;;;;;15.47;7.80;;;6.50;58.30;;;;;;5074180;28;20795;-55
2021/04/28 05:03:25;;;;;;;11.40;7.57;;;6.60;58.20;;;;;;5070295;28;20532;-51
2021/04/28 05:05:52;;;;;;;15.27;7.33;;;6.60;58.30;;;;;;5070746;28;20908;-48
2021/04/28 05:08:18;;;;;;;14.03;7.27;;;6.60;58.10;;;;;;5073887;28;20447;-51
2021/04/28 05:10:45;;;;;;;13.40;7.90;;;6.70;58.10;;;;;;5064197;28;20443;-52
2021/04/28 05:13:11;;;;;;;10.97;7.53;;;6.70;58.80;;;;;;5063858;28;20509;-51
2021/04/28 05:15:38;;;;;;;10.27;6.57;;;6.70;58.30;;;;;;5064461;28;20450;-51
2021/04/28 05:18:05;;;;;;;19.03;9.20;;;6.70;58.20;;;;;;5061644;28;20459;-51
2021/04/28 05:20:31;;;;;;;15.67;8.03;;;6.70;58.40;;;;;;5065020;28;20434;-53
2021/04/28 05:22:58;;;;;;;11.93;7.30;;;6.70;58.40;;;;;;5065200;28;20443;-55
2021/04/28 05:25:25;;;;;;;13.90;7.93;;;6.70;58.60;;;;;;5061240;28;20971;-56
2021/04/28 05:27:51;;;;;;;15.43;8.63;;;6.70;58.60;;;;;;5061065;28;20784;-53
2021/04/28 05:30:20;;;;;;;14.37;7.90;;;6.70;58.60;;;;;;5062304;28;20781;-51
2021/04/28 05:32:46;;;;;;;12.93;7.70;;;6.80;58.80;;;;;;5083697;28;20438;-49
2021/04/28 05:35:13;;;;;;;17.23;7.83;;;6.90;58.70;;;;;;5082554;28;20455;-50
2021/04/28 05:37:39;;;;;;;11.33;7.20;;;6.90;58.60;;;;;;5082079;28;20454;-48
2021/04/28 05:40:09;;;;;;;16.50;8.03;;;6.90;58.60;;;;;;5081053;28;20454;-48
2021/04/28 05:42:35;;;;;;;12.40;7.70;;;6.90;58.80;;;;;;5068362;28;20439;-52
2021/04/28 05:45:02;;;;;;;10.80;6.80;;;7.00;58.70;;;;;;5060945;28;20479;-50
2021/04/28 05:47:28;;;;;;;18.10;8.20;;;7.00;58.70;;;;;;5075018;28;20454;-50
2021/04/28 05:49:54;;;;;;;17.33;8.33;;;7.00;58.90;;;;;;5062273;28;20455;-52
2021/04/28 05:52:20;;;;;;;13.77;8.20;;;7.00;58.90;;;;;;5064691;28;20449;-53
2021/04/28 05:54:47;;;;;;;17.83;8.57;;;7.10;59.00;;;;;;5069076;28;20468;-54
2021/04/28 05:57:16;;;;;;;14.03;8.03;;;7.10;59.00;;;;;;5067014;28;20960;-51
2021/04/28 05:59:42;;;;;;;19.57;10.57;;;7.10;58.90;;;;;;5076384;28;20950;-55
2021/04/28 06:02:10;;;;;;;14.70;8.40;;;7.20;59.10;;;;;;5087042;28;20525;-50
2021/04/28 06:04:36;;;;;;;11.80;8.17;;;7.30;58.90;;;;;;5078143;28;20470;-49
2021/04/28 06:07:08;;;;;;;17.03;8.13;;;7.50;58.70;;;;;;5082516;28;20435;-50
2021/04/28 06:09:34;;;;;;;13.17;8.13;;;7.60;58.30;;;;;;5068458;28;20481;-51
2021/04/28 06:12:00;;;;;;;13.03;8.57;;;7.70;58.20;;;;;;5060233;28;20443;-49
2021/04/28 06:14:27;;;;;;;25.33;10.90;;;7.80;58.10;;;;;;5076575;28;20438;-48
2021/04/28 06:16:54;;;;;;;17.20;8.90;;;7.90;57.80;;;;;;5076227;28;20448;-52
2021/04/28 06:19:20;;;;;;;17.90;8.87;;;8.00;57.50;;;;;;5066557;28;20447;-52
2021/04/28 06:21:46;;;;;;;16.80;8.63;;;8.10;57.10;;;;;;5058375;28;20447;-47
2021/04/28 06:24:14;;;;;;;15.20;8.83;;;8.20;57.00;;;;;;5058148;28;20943;-48
2021/04/28 06:26:44;;;;;;;17.43;8.73;;;8.20;56.80;;;;;;5058656;28;20513;-51
2021/04/28 06:29:10;;;;;;;15.97;9.70;;;8.30;57.20;;;;;;5064380;28;20474;-49
2021/04/28 06:31:37;;;;;;;17.40;8.83;;;8.40;56.50;;;;;;5056496;28;20447;-48
2021/04/28 06:34:04;;;;;;;15.27;8.60;;;8.60;56.30;;;;;;5049575;28;20452;-50
2021/04/28 06:36:30;;;;;;;15.97;9.03;;;8.70;55.70;;;;;;5057476;28;20553;-52
2021/04/28 06:38:56;;;;;;;15.23;9.47;;;8.80;55.90;;;;;;5057973;28;20446;-51
2021/04/28 06:41:22;;;;;;;19.43;9.70;;;8.90;55.60;;;;;;5058831;28;20443;-50
2021/04/28 06:43:48;;;;;;;12.93;8.50;;;9.00;55.40;;;;;;5057595;28;20544;-47
2021/04/28 06:46:14;;;;;;;15.17;9.87;;;9.10;54.90;;;;;;5058447;28;20782;-49
2021/04/28 06:48:41;;;;;;;10.70;8.57;;;9.20;54.50;;;;;;5058349;28;20451;-52
2021/04/28 06:51:08;;;;;;;17.30;9.23;;;9.30;54.30;;;;;;5058264;28;20533;-47
2021/04/28 06:53:34;;;;;;;20.73;9.00;;;9.40;54.20;;;;;;5058359;28;20974;-51
2021/04/28 06:56:00;;;;;;;12.20;8.33;;;9.50;54.00;;;;;;5058539;28;20454;-52
2021/04/28 06:58:28;;;;;;;19.37;9.27;;;9.60;53.90;;;;;;5058667;28;20463;-49
2021/04/28 07:00:55;;;;;;;15.10;8.03;;;9.70;53.70;;;;;;5058889;28;20447;-46
2021/04/28 07:03:21;;;;;;;16.53;9.23;;;9.70;53.50;;;;;;5058434;28;20904;-48
2021/04/28 07:05:48;;;;;;;18.33;9.20;;;9.80;53.30;;;;;;5057754;28;20470;-49
2021/04/28 07:08:14;;;;;;;14.10;8.90;;;9.90;53.30;;;;;;5057484;28;20788;-49
2021/04/28 07:10:40;;;;;;;15.23;9.03;;;10.00;52.50;;;;;;5058169;28;20447;-49
2021/04/28 07:13:07;;;;;;;14.60;9.33;;;10.10;52.70;;;;;;5056987;28;20450;-48
2021/04/28 07:15:33;;;;;;;15.00;9.90;;;10.30;51.80;;;;;;5060996;28;20435;-50
2021/04/28 07:18:00;;;;;;;13.93;10.00;;;10.40;52.10;;;;;;5060428;28;20500;-47
2021/04/28 07:20:27;;;;;;;18.83;8.47;;;10.50;52.90;;;;;;5060810;28;20439;-47
2021/04/28 07:22:54;;;;;;;14.80;9.33;;;10.60;51.40;;;;;;5061158;28;20443;-52
2021/04/28 07:25:20;;;;;;;26.90;9.10;;;10.70;50.80;;;;;;5060972;28;20483;-54
2021/04/28 07:27:47;;;;;;;17.53;8.57;;;10.70;50.80;;;;;;5061087;28;20450;-52
2021/04/28 07:30:18;;;;;;;17.67;10.13;;;10.80;51.00;;;;;;5060765;28;20569;-49
2021/04/28 07:32:44;;;;;;;14.23;9.10;;;10.90;50.60;;;;;;5060814;28;20450;-51
2021/04/28 07:35:12;;;;;;;18.70;9.50;;;11.00;50.70;;;;;;5060451;28;20439;-48
2021/04/28 07:37:39;;;;;;;13.30;9.80;;;11.10;49.50;;;;;;5061399;28;20911;-48
2021/04/28 07:40:08;;;;;;;13.47;9.37;;;11.20;49.40;;;;;;5061171;28;20914;-53
2021/04/28 07:42:35;;;;;;;15.33;9.30;;;11.30;49.90;;;;;;5060906;28;20442;-51
2021/04/28 07:45:01;;;;;;;14.87;8.23;;;11.40;49.70;;;;;;5059992;28;20484;-52
2021/04/28 07:47:27;;;;;;;19.73;9.13;;;11.70;49.40;;;;;;5059877;28;20510;-52
2021/04/28 07:49:54;;;;;;;18.57;9.20;;;12.50;48.70;;;;;;5059121;28;20447;-52
2021/04/28 07:52:20;;;;;;;16.37;9.17;;;13.90;46.60;;;;;;5059140;28;20501;-53
2021/04/28 07:54:47;;;;;;;17.43;10.33;;;15.60;44.10;;;;;;5058286;28;20439;-52
2021/04/28 07:57:14;;;;;;;18.00;9.63;;;17.10;42.70;;;;;;5058070;28;20840;-52
2021/04/28 07:59:41;;;;;;;25.43;15.20;;;18.70;39.80;;;;;;5057809;28;20537;-49
2021/04/28 08:02:07;;;;;;;13.80;10.63;;;20.20;37.60;;;;;;5057663;28;20888;-47
2021/04/28 08:04:33;;;;;;;15.37;10.40;;;21.30;35.60;;;;;;5057377;28;20482;-50
2021/04/28 08:07:02;;;;;;;16.77;11.37;;;22.20;34.60;;;;;;5057529;28;20537;-54
2021/04/28 08:09:28;;;;;;;14.33;10.40;;;23.30;33.20;;;;;;5057050;28;20913;-52
2021/04/28 08:11:55;;;;;;;17.20;11.80;;;24.10;32.10;;;;;;5057234;28;20448;-53
2021/04/28 08:14:22;;;;;;;14.83;11.30;;;24.70;30.80;;;;;;5056897;28;20447;-55
2021/04/28 08:16:48;;;;;;;17.33;10.30;;;25.10;29.80;;;;;;5057072;28;20451;-54
2021/04/28 08:19:14;;;;;;;14.50;11.17;;;25.30;29.30;;;;;;5057066;28;20451;-49
2021/04/28 08:21:41;;;;;;;15.00;12.23;;;25.50;29.20;;;;;;5056753;28;20447;-53
2021/04/28 08:24:08;;;;;;;13.57;10.40;;;25.90;29.70;;;;;;5056926;28;20494;-49
2021/04/28 08:26:34;;;;;;;16.00;10.80;;;26.20;29.50;;;;;;5055777;28;20442;-54
2021/04/28 08:29:00;;;;;;;13.70;10.53;;;26.30;28.90;;;;;;5056807;28;20462;-52
2021/04/28 08:31:27;;;;;;;16.80;12.27;;;26.70;28.40;;;;;;5056451;28;20471;-49
2021/04/28 08:33:53;;;;;;;12.30;10.37;;;27.10;28.20;;;;;;5056553;28;20447;-51
2021/04/28 08:36:20;;;;;;;16.70;12.43;;;27.10;27.80;;;;;;5056844;28;20456;-54
2021/04/28 08:38:46;;;;;;;15.87;11.47;;;27.20;27.80;;;;;;5056527;28;20474;-55
2021/04/28 08:41:13;;;;;;;20.27;12.13;;;27.30;27.50;;;;;;5056429;28;20432;-51
2021/04/28 08:43:40;;;;;;;18.70;12.27;;;27.30;27.70;;;;;;5056181;28;20478;-52
2021/04/28 08:46:09;;;;;;;16.77;12.10;;;27.10;27.60;;;;;;5056449;28;20447;-50
2021/04/28 08:48:36;;;;;;;14.13;10.80;;;27.20;27.60;;;;;;5056431;28;20459;-53
2021/04/28 08:51:04;;;;;;;14.17;11.60;;;26.90;27.90;;;;;;5056379;28;20783;-54
2021/04/28 08:53:33;;;;;;;17.33;12.10;;;27.00;28.10;;;;;;5056530;28;20443;-46
2021/04/28 08:56:05;;;;;;;17.13;12.30;;;27.10;27.80;;;;;;5056368;28;20443;-48
2021/04/28 08:58:31;;;;;;;16.93;11.80;;;27.20;27.70;;;;;;5056138;28;20947;-55
2021/04/28 09:00:57;;;;;;;24.30;12.30;;;27.20;27.70;;;;;;5056349;28;20447;-54
2021/04/28 09:03:40;;;;;;;13.53;10.83;;;27.20;27.80;;;;;;5056544;28;20523;-51
2021/04/28 09:06:31;;;;;;;16.73;12.13;;;27.30;27.70;;;;;;5056620;28;20435;-51
2021/04/28 09:09:02;;;;;;;15.20;12.50;;;27.20;27.60;;;;;;5055798;28;20521;-52
2021/04/28 09:11:40;;;;;;;12.70;10.50;;;27.20;27.90;;;;;;5056005;28;20451;-52
2021/04/28 09:14:11;;;;;;;14.50;11.97;;;26.90;27.80;;;;;;5055944;28;20462;-53
2021/04/28 09:16:38;;;;;;;15.50;11.93;;;27.00;27.70;;;;;;5055929;28;20513;-53
2021/04/28 09:19:07;;;;;;;16.17;11.77;;;27.00;28.30;;;;;;5055866;28;20458;-51
2021/04/28 09:21:56;;;;;;;12.50;10.97;;;26.70;28.10;;;;;;5055916;28;20458;-47
2021/04/28 09:24:25;;;;;;;15.83;10.93;;;26.90;28.30;;;;;;5055764;28;20482;-48
2021/04/28 09:26:54;;;;;;;15.30;12.10;;;27.00;28.20;;;;;;5055791;28;20450;-50
2021/04/28 09:29:22;;;;;;;16.27;11.70;;;26.90;28.20;;;;;;5055360;28;20462;-47
2021/04/28 09:32:00;;;;;;;14.93;11.00;;;26.90;28.30;;;;;;5055656;28;20776;-51
2021/04/28 09:34:29;;;;;;;15.63;10.70;;;26.90;28.30;;;;;;5055692;28;20454;-49
2021/04/28 09:37:10;;;;;;;16.43;11.37;;;26.90;28.70;;;;;;5055382;28;20507;-48
2021/04/28 09:39:48;;;;;;;11.97;10.30;;;26.90;28.50;;;;;;5055290;28;20443;-52
2021/04/28 09:42:16;;;;;;;11.57;9.73;;;27.00;28.00;;;;;;5055406;28;20439;-52
2021/04/28 09:44:48;;;;;;;14.10;12.27;;;27.40;27.50;;;;;;5055376;28;20483;-53
2021/04/28 09:47:16;;;;;;;13.53;11.50;;;27.90;26.80;;;;;;5055394;28;20475;-53
2021/04/28 09:49:51;;;;;;;19.03;11.60;;;27.80;27.00;;;;;;5055090;28;20479;-52
2021/04/28 09:52:20;;;;;;;13.10;11.07;;;27.60;27.20;;;;;;5055285;28;20435;-51
2021/04/28 09:54:49;;;;;;;15.80;11.57;;;27.70;26.90;;;;;;5054911;28;20537;-51
2021/04/28 09:57:18;;;;;;;13.17;10.80;;;28.00;26.70;;;;;;5054892;28;20498;-52
2021/04/28 09:59:47;;;;;;;18.23;12.00;;;27.90;27.00;;;;;;5055473;28;20459;-50
2021/04/28 10:02:24;;;;;;;15.70;11.67;;;27.90;26.40;;;;;;5054784;28;20532;-50
2021/04/28 10:04:52;;;;;;;14.07;11.87;;;28.00;26.30;;;;;;5054524;28;20496;-52
2021/04/28 10:07:26;;;;;;;15.43;11.40;;;27.90;26.60;;;;;;5054642;28;20451;-49
2021/04/28 10:09:53;;;;;;;12.33;11.03;;;27.80;26.60;;;;;;5054705;28;20545;-53
2021/04/28 10:12:20;;;;;;;15.70;10.90;;;27.70;26.40;;;;;;5054758;28;20517;-47
2021/04/28 10:14:47;;;;;;;15.37;12.97;;;27.20;27.20;;;;;;5054596;28;20454;-51
2021/04/28 10:17:16;;;;;;;12.93;11.63;;;26.70;27.60;;;;;;5054551;28;20428;-50
2021/04/28 10:19:43;;;;;;;13.27;10.70;;;26.60;27.80;;;;;;5054739;28;20475;-54
2021/04/28 10:22:12;;;;;;;18.10;12.10;;;26.60;27.40;;;;;;5054737;28;20481;-53
2021/04/28 10:24:40;;;;;;;18.40;13.80;;;26.50;28.00;;;;;;5054449;28;20475;-50
2021/04/28 10:27:08;;;;;;;12.50;11.17;;;26.20;28.50;;;;;;5054636;28;20485;-49
2021/04/28 10:29:37;;;;;;;14.77;11.87;;;26.00;28.30;;;;;;5054499;28;20645;-51
2021/04/28 10:32:03;;;;;;;13.70;11.43;;;25.90;28.20;;;;;;5054603;28;20860;-53
2021/04/28 10:34:32;;;;;;;14.30;10.50;;;25.70;28.90;;;;;;5054231;28;20923;-55
2021/04/28 10:36:59;;;;;;;14.70;11.63;;;25.20;28.70;;;;;;5054429;28;20459;-53
2021/04/28 10:39:28;;;;;;;14.20;11.97;;;25.00;29.30;;;;;;5054424;28;20458;-51
2021/04/28 10:41:56;;;;;;;12.43;10.73;;;24.90;29.90;;;;;;5054543;28;20454;-52
2021/04/28 10:44:45;;;;;;;15.27;10.77;;;24.60;29.60;;;;;;5053722;28;20494;-50
2021/04/28 10:47:22;;;;;;;31.20;19.43;;;24.30;30.00;;;;;;5054331;28;20834;-48
2021/04/28 10:50:06;;;;;;;15.40;11.27;;;24.10;30.20;;;;;;5054170;28;20819;-47
2021/04/28 10:52:33;;;;;;;19.10;11.53;;;23.90;30.20;;;;;;5054235;28;20529;-50
2021/04/28 10:55:00;;;;;;;17.60;11.47;;;24.00;30.60;;;;;;5054726;28;20447;-49
2021/04/28 10:57:35;;;;;;;21.30;12.00;;;24.00;30.10;;;;;;5054648;28;20451;-51
2021/04/28 11:00:01;;;;;;;14.67;12.57;;;24.00;30.30;;;;;;5054483;28;20458;-53
2021/04/28 11:02:31;;;;;;;22.10;11.50;;;23.90;31.00;;;;;;5054927;28;20462;-47
2021/04/28 11:05:04;;;;;;;16.80;10.00;;;23.80;30.20;;;;;;5054558;28;20486;-47
2021/04/28 11:07:43;;;;;;;15.97;11.60;;;23.60;30.00;;;;;;5054538;28;20448;-49
2021/04/28 11:10:29;;;;;;;13.60;10.13;;;23.20;30.10;;;;;;5054061;28;20470;-47
2021/04/28 11:13:07;;;;;;;15.57;11.00;;;22.90;30.80;;;;;;5054221;28;20765;-50
2021/04/28 11:15:48;;;;;;;20.43;11.83;;;22.80;31.40;;;;;;5054407;28;20504;-51
2021/04/28 11:18:29;;;;;;;16.67;11.53;;;22.50;31.80;;;;;;5053989;28;20463;-49
2021/04/28 11:21:26;;;;;;;15.80;9.80;;;22.30;32.40;;;;;;5054516;28;20447;-48
2021/04/28 11:24:11;;;;;;;14.97;10.80;;;22.20;32.30;;;;;;5054005;28;20427;-49
2021/04/28 11:26:39;;;;;;;15.30;10.60;;;22.00;33.30;;;;;;5054188;28;20443;-49
2021/04/28 11:29:07;;;;;;;15.20;10.77;;;21.80;33.80;;;;;;5053818;28;20452;-53
2021/04/28 11:31:42;;;;;;;11.33;9.53;;;21.90;33.50;;;;;;5053862;28;20541;-53
2021/04/28 11:34:34;;;;;;;15.03;11.50;;;21.80;33.40;;;;;;5054069;28;20482;-51
2021/04/28 11:37:03;;;;;;;16.07;11.23;;;21.80;34.20;;;;;;5054366;28;20479;-49
2021/04/28 11:39:36;;;;;;;15.17;11.73;;;21.70;34.80;;;;;;5054414;28;20442;-50
2021/04/28 11:42:08;;;;;;;14.00;10.53;;;21.60;34.30;;;;;;5053943;28;20467;-50
2021/04/28 11:44:36;;;;;;;14.13;10.80;;;21.50;34.30;;;;;;5054162;28;20549;-49
2021/04/28 11:47:08;;;;;;;18.20;10.97;;;21.30;34.90;;;;;;5053954;28;20439;-51
2021/04/28 11:49:34;;;;;;;15.83;11.80;;;21.20;34.80;;;;;;5054066;28;20443;-49
2021/04/28 11:52:00;;;;;;;12.63;9.27;;;21.10;36.40;;;;;;5054385;28;20466;-47
2021/04/28 11:54:26;;;;;;;16.27;10.37;;;21.10;35.50;;;;;;5053663;28;20451;-57
2021/04/28 11:56:52;;;;;;;14.10;10.83;;;21.10;35.50;;;;;;5053627;28;20534;-47
2021/04/28 11:59:25;;;;;;;15.67;10.27;;;21.00;34.70;;;;;;5053752;28;20773;-48
2021/04/28 12:01:54;;;;;;;13.00;9.20;;;21.10;35.00;;;;;;5056396;28;20435;-47
2021/04/28 12:04:27;;;;;;;13.43;9.50;;;21.20;35.30;;;;;;5057568;28;20867;-50
2021/04/28 12:06:55;;;;;;;14.13;9.30;;;21.20;34.70;;;;;;5057705;28;20427;-48
2021/04/28 12:09:44;;;;;;;17.57;9.90;;;21.20;34.40;;;;;;5057143;28;21015;-49
2021/04/28 12:12:14;;;;;;;12.87;8.77;;;21.20;34.20;;;;;;5057385;28;20542;-49
2021/04/28 12:14:42;;;;;;;11.40;9.30;;;21.20;34.70;;;;;;5057165;28;20509;-48
2021/04/28 12:17:08;;;;;;;12.37;9.00;;;21.30;35.10;;;;;;5057839;28;20542;-47
2021/04/28 12:19:35;;;;;;;12.33;8.50;;;21.30;34.90;;;;;;5057801;28;20447;-51
2021/04/28 12:22:04;;;;;;;9.93;8.07;;;21.30;34.50;;;;;;5057103;28;20450;-51
2021/04/28 12:24:32;;;;;;;10.57;7.37;;;21.40;34.20;;;;;;5056748;28;20512;-55
2021/04/28 12:27:11;;;;;;;12.83;7.43;;;21.50;34.40;;;;;;5056973;28;20455;-52
2021/04/28 12:29:38;;;;;;;9.60;7.77;;;21.50;34.00;;;;;;5057051;28;20475;-53
2021/04/28 12:32:07;;;;;;;9.93;8.20;;;21.40;33.60;;;;;;5057053;28;20780;-49
2021/04/28 12:34:34;;;;;;;13.27;7.83;;;21.40;33.90;;;;;;5057693;28;20570;-52
2021/04/28 12:37:27;;;;;;;10.40;6.90;;;21.20;33.70;;;;;;5056767;28;20455;-49
2021/04/28 12:39:59;;;;;;;11.70;8.10;;;20.70;34.40;;;;;;5021028;28;20454;-51
2021/04/28 12:42:30;;;;;;;11.40;8.20;;;20.50;34.40;;;;;;5056827;28;20908;-51
2021/04/28 12:44:58;;;;;;;11.27;7.93;;;20.50;35.10;;;;;;5056566;28;20967;-48
2021/04/28 12:47:27;;;;;;;12.73;7.87;;;20.30;35.30;;;;;;5056989;28;20450;-49
2021/04/28 12:50:11;;;;;;;13.73;8.10;;;20.40;36.20;;;;;;5057070;28;20830;-52